New England, North Dakota
Current Conditions -  °F | °C
As of 12:56 AM on Friday 26 Dec 2014 (Local Time) from KDIK Reporting Station
Overcast Overcast  
Wind Chill:   Ceiling: 1100
Heat Index: 19°   Visibility: 9mi
Dew Point: 13°   Wind: 10mph
Humidity: 77%   Direction: 320°NW
Pressure: 30.02"   Gusts: NA
Location:  46.54°N, 102.87°W
Report Text: KDIK 260756Z AUTO 32009KT 9SM OVC011 M07/M11 A3002 RMK AO2 SNB46E56 SLP204 P0000 T10721106
Loading
Personal Weather Stations






























Interactive Weather Map New forecast layout! Learn more

10-Day Weather Forecast

Advertisements
Track Severe Weather on mobile